Time;durP1;ratioP1;P1;durP2;ratioP2;P2;SDS_P1;SDS_P2;PMS_P1;PMS_P2;Temp;Humidity;BMP_temperature;BMP_pressure;BME280_temperature;BME280_humidity;BME280_pressure;Samples;Min_cycle;Max_cycle;Signal;HPM_P1;HPM_P2
2022/11/26 00:00:44;;;;;;;28.92;18.38;;;6.20;99.90;;;;;;4700509;28;9999883;-69
2022/11/26 00:03:11;;;;;;;30.30;18.50;;;6.20;99.90;;;;;;5055330;28;20035;-69
2022/11/26 00:05:38;;;;;;;27.95;18.58;;;6.20;99.90;;;;;;5059393;28;20032;-69
2022/11/26 00:08:18;;;;;;;31.58;18.98;;;6.20;99.90;;;;;;5053390;28;20056;-70
2022/11/26 00:10:44;;;;;;;33.85;20.75;;;6.20;99.90;;;;;;5051270;28;20129;-69
2022/11/26 00:13:18;;;;;;;33.53;20.58;;;6.20;99.90;;;;;;5059136;28;20036;-69
2022/11/26 00:15:44;;;;;;;36.17;20.35;;;6.20;99.90;;;;;;5055800;28;20103;-69
2022/11/26 00:18:11;;;;;;;34.75;19.80;;;6.20;99.90;;;;;;5058248;28;20741;-69
2022/11/26 00:20:37;;;;;;;33.85;19.98;;;6.20;99.90;;;;;;5060164;28;20036;-70
2022/11/26 00:23:03;;;;;;;30.65;19.55;;;6.20;99.90;;;;;;5063133;28;20107;-69
2022/11/26 00:25:54;;;;;;;31.50;19.10;;;6.20;99.90;;;;;;5062048;28;20033;-70
2022/11/26 00:28:25;;;;;;;31.52;19.17;;;6.20;99.90;;;;;;5062697;28;20032;-70
2022/11/26 00:30:52;;;;;;;30.75;20.23;;;6.20;99.90;;;;;;5057421;28;20463;-70
2022/11/26 00:33:17;;;;;;;36.60;18.90;;;6.20;99.90;;;;;;5059482;28;20028;-70
2022/11/26 00:35:45;;;;;;;32.72;19.10;;;6.30;99.90;;;;;;5055720;28;20058;-70
2022/11/26 00:38:17;;;;;;;34.33;18.55;;;6.30;99.90;;;;;;5061467;28;20032;-70
2022/11/26 00:40:43;;;;;;;31.27;18.67;;;6.30;99.90;;;;;;5060997;28;20560;-70
2022/11/26 00:43:13;;;;;;;31.52;19.42;;;6.30;99.90;;;;;;5054953;28;20033;-70
2022/11/26 00:45:39;;;;;;;32.17;18.80;;;6.30;99.90;;;;;;5053113;28;20027;-70
2022/11/26 00:48:05;;;;;;;34.47;21.35;;;6.30;99.90;;;;;;5054664;28;20025;-70
2022/11/26 00:50:37;;;;;;;29.35;19.73;;;6.20;99.90;;;;;;5051677;28;20028;-70
2022/11/26 00:53:04;;;;;;;28.20;18.63;;;6.20;99.90;;;;;;5053832;28;20024;-70
2022/11/26 00:55:49;;;;;;;26.92;17.98;;;6.20;99.90;;;;;;5058667;28;20025;-70
2022/11/26 00:58:29;;;;;;;26.02;17.35;;;6.20;99.90;;;;;;5057085;28;20115;-69
2022/11/26 01:00:58;;;;;;;23.45;16.10;;;6.20;99.90;;;;;;5056723;28;20035;-69
2022/11/26 01:03:24;;;;;;;24.98;17.10;;;6.20;99.90;;;;;;5050264;28;20051;-69
2022/11/26 01:05:55;;;;;;;25.45;17.05;;;6.20;99.90;;;;;;5057845;28;20020;-69
2022/11/26 01:08:29;;;;;;;23.67;16.08;;;6.10;99.90;;;;;;5049036;28;20090;-69
2022/11/26 01:10:57;;;;;;;24.45;15.45;;;6.20;99.90;;;;;;5054387;28;20025;-70
2022/11/26 01:13:22;;;;;;;21.80;15.45;;;6.20;99.90;;;;;;5050415;28;20454;-69
2022/11/26 01:15:48;;;;;;;24.70;16.45;;;6.20;99.90;;;;;;5051581;28;20086;-70
2022/11/26 01:18:20;;;;;;;23.23;15.95;;;6.20;99.90;;;;;;5053723;28;20028;-70
2022/11/26 01:20:46;;;;;;;24.20;16.05;;;6.20;99.90;;;;;;5056480;28;20028;-69
2022/11/26 01:23:14;;;;;;;30.05;17.83;;;6.20;99.90;;;;;;5058488;28;20048;-70
2022/11/26 01:25:40;;;;;;;23.42;16.15;;;6.30;99.90;;;;;;5047829;28;20049;-70
2022/11/26 01:28:12;;;;;;;24.02;16.08;;;6.30;99.90;;;;;;5053784;28;20024;-70
2022/11/26 01:30:39;;;;;;;22.88;15.45;;;6.30;99.90;;;;;;5058731;28;20029;-70
2022/11/26 01:33:04;;;;;;;24.92;17.38;;;6.30;99.90;;;;;;5053372;28;20063;-70
2022/11/26 01:35:30;;;;;;;22.63;15.93;;;6.30;99.90;;;;;;5059050;28;20032;-69
2022/11/26 01:37:56;;;;;;;24.55;15.70;;;6.20;99.90;;;;;;5052877;28;20119;-70
2022/11/26 01:40:25;;;;;;;28.45;18.27;;;6.30;99.90;;;;;;5060014;28;20165;-70
2022/11/26 01:42:57;;;;;;;27.05;17.02;;;6.30;99.90;;;;;;5045755;28;20090;-70
2022/11/26 01:45:23;;;;;;;26.15;17.60;;;6.30;99.90;;;;;;5055410;28;20032;-70
2022/11/26 01:47:50;;;;;;;28.10;17.70;;;6.30;99.90;;;;;;5051419;28;20033;-70
2022/11/26 01:50:30;;;;;;;25.00;16.55;;;6.30;99.90;;;;;;5058913;28;20028;-70
2022/11/26 01:53:00;;;;;;;23.55;15.35;;;6.20;99.90;;;;;;5051689;28;20065;-70
2022/11/26 01:55:40;;;;;;;21.17;14.98;;;6.20;99.90;;;;;;5053848;28;20289;-70
2022/11/26 01:58:09;;;;;;;24.60;16.92;;;6.20;99.90;;;;;;5051266;28;20025;-70
2022/11/26 02:00:35;;;;;;;24.13;15.73;;;6.10;99.90;;;;;;5059036;28;20110;-70
2022/11/26 02:03:02;;;;;;;20.95;14.25;;;6.10;99.90;;;;;;5045276;28;20536;-70
2022/11/26 02:05:33;;;;;;;27.15;16.15;;;6.10;99.90;;;;;;5056539;28;20050;-70
2022/11/26 02:08:00;;;;;;;22.20;15.13;;;6.10;99.90;;;;;;5050924;28;20027;-69
2022/11/26 02:10:26;;;;;;;21.35;15.07;;;6.00;99.90;;;;;;5051113;28;20024;-69
2022/11/26 02:12:52;;;;;;;20.63;14.13;;;6.00;99.90;;;;;;5048312;28;20041;-70
2022/11/26 02:15:18;;;;;;;19.35;13.38;;;5.90;99.90;;;;;;5045502;28;20024;-70
2022/11/26 02:17:50;;;;;;;21.02;13.30;;;5.80;99.90;;;;;;5053962;28;20036;-69
2022/11/26 02:20:31;;;;;;;20.20;13.85;;;5.80;99.90;;;;;;5058145;28;20038;-70
2022/11/26 02:23:17;;;;;;;19.38;12.52;;;5.80;99.90;;;;;;5054037;28;20055;-70
2022/11/26 02:26:19;;;;;;;16.67;12.07;;;5.70;99.90;;;;;;5044518;28;20033;-70
2022/11/26 02:29:06;;;;;;;18.42;11.80;;;5.70;99.90;;;;;;5055203;28;20032;-70
2022/11/26 02:31:59;;;;;;;19.40;13.25;;;5.70;99.90;;;;;;5052620;28;20124;-70
2022/11/26 02:34:47;;;;;;;25.77;15.15;;;5.60;99.90;;;;;;5052877;28;20029;-70
2022/11/26 02:37:38;;;;;;;20.40;13.57;;;5.60;99.90;;;;;;5046021;28;20032;-69
2022/11/26 02:40:06;;;;;;;21.42;14.75;;;5.60;99.90;;;;;;5062638;28;20053;-70
2022/11/26 02:42:34;;;;;;;20.33;13.43;;;5.60;99.90;;;;;;5058845;28;20068;-70
2022/11/26 02:45:07;;;;;;;19.52;13.18;;;5.60;99.90;;;;;;5055207;28;20108;-70
2022/11/26 02:47:33;;;;;;;;;;;5.70;99.90;;;;;;5056489;28;20036;-70
2022/11/26 02:50:03;;;;;;;24.13;14.00;;;5.70;99.90;;;;;;5057124;28;19908;-70
2022/11/26 02:52:30;;;;;;;20.23;14.00;;;5.60;99.90;;;;;;5056791;28;20027;-70
2022/11/26 02:54:57;;;;;;;23.90;15.57;;;5.60;99.90;;;;;;5060841;28;20048;-70
2022/11/26 02:57:27;;;;;;;25.77;15.52;;;5.60;99.90;;;;;;5059287;28;20032;-70
2022/11/26 02:59:53;;;;;;;27.92;15.25;;;5.60;99.90;;;;;;5053984;28;20036;-70
2022/11/26 03:02:26;;;;;;;24.88;15.27;;;5.60;99.90;;;;;;5051697;28;20490;-70
2022/11/26 03:04:55;;;;;;;;;;;5.60;99.90;;;;;;5057125;28;20029;-70
2022/11/26 03:07:21;;;;;;;25.63;14.35;;;5.50;99.90;;;;;;5050775;28;19919;-70
2022/11/26 03:09:55;;;;;;;23.05;14.32;;;5.50;99.90;;;;;;5057664;28;20025;-70
2022/11/26 03:12:21;;;;;;;21.85;13.15;;;5.40;99.90;;;;;;5059526;28;20025;-70
2022/11/26 03:14:46;;;;;;;20.80;13.25;;;5.40;99.90;;;;;;5058163;28;20031;-70
2022/11/26 03:17:12;;;;;;;21.35;13.70;;;5.40;99.90;;;;;;5052407;28;20029;-70
2022/11/26 03:19:38;;;;;;;22.45;13.88;;;5.30;99.90;;;;;;5058549;28;20054;-70
2022/11/26 03:22:04;;;;;;;22.08;13.63;;;5.30;99.90;;;;;;5053459;28;20543;-69
2022/11/26 03:24:31;;;;;;;21.58;12.85;;;5.20;99.90;;;;;;5060529;28;20020;-70
2022/11/26 03:26:57;;;;;;;22.55;13.68;;;5.20;99.90;;;;;;5057763;28;20032;-70
2022/11/26 03:29:23;;;;;;;22.30;13.60;;;5.20;99.90;;;;;;5061470;28;20020;-70
2022/11/26 03:31:49;;;;;;;20.75;13.57;;;5.20;99.90;;;;;;5059821;28;20145;-69
2022/11/26 03:34:14;;;;;;;22.45;13.63;;;5.20;99.90;;;;;;5062518;28;20623;-70
2022/11/26 03:36:40;;;;;;;23.58;12.48;;;5.10;99.90;;;;;;5063347;28;20051;-70
2022/11/26 03:39:06;;;;;;;19.48;13.18;;;5.10;99.90;;;;;;5062988;28;20170;-70
2022/11/26 03:41:32;;;;;;;23.58;12.57;;;5.10;99.90;;;;;;5057782;28;20119;-70
2022/11/26 03:43:57;;;;;;;18.05;11.73;;;5.10;99.90;;;;;;5061438;28;20032;-70
2022/11/26 03:46:23;;;;;;;18.52;12.60;;;5.10;99.90;;;;;;5053747;28;20028;-70
2022/11/26 03:48:49;;;;;;;20.25;12.70;;;5.00;99.90;;;;;;5054975;28;20033;-70
2022/11/26 03:51:14;;;;;;;17.65;11.55;;;5.00;99.90;;;;;;5061158;28;20040;-69
2022/11/26 03:53:40;;;;;;;24.00;14.07;;;5.00;99.90;;;;;;5057432;28;20028;-70
2022/11/26 03:56:06;;;;;;;46.38;20.15;;;5.00;99.90;;;;;;5053246;28;20567;-70
2022/11/26 03:58:33;;;;;;;61.55;26.23;;;5.00;99.90;;;;;;5059758;28;20057;-70
2022/11/26 04:00:58;;;;;;;50.95;21.10;;;4.90;99.90;;;;;;5060683;28;20031;-69
2022/11/26 04:03:24;;;;;;;95.22;32.80;;;4.90;99.90;;;;;;5043484;28;20020;-70
2022/11/26 04:05:50;;;;;;;102.05;41.08;;;4.90;99.90;;;;;;5046561;28;20387;-69
2022/11/26 04:08:15;;;;;;;94.57;41.85;;;4.80;99.90;;;;;;5059373;28;20032;-70
2022/11/26 04:10:41;;;;;;;83.07;37.67;;;4.70;99.90;;;;;;5057246;28;20488;-70
2022/11/26 04:13:06;;;;;;;67.05;33.42;;;4.70;99.90;;;;;;5056103;28;20029;-70
2022/11/26 04:15:33;;;;;;;55.15;28.35;;;4.60;99.90;;;;;;5056217;28;20033;-70
2022/11/26 04:17:59;;;;;;;45.17;23.92;;;4.60;99.90;;;;;;5062658;28;20093;-70
2022/11/26 04:20:25;;;;;;;35.47;19.67;;;4.50;99.90;;;;;;5049846;28;20024;-70
2022/11/26 04:22:50;;;;;;;27.33;16.13;;;4.60;99.90;;;;;;5055880;28;20024;-70
2022/11/26 04:25:16;;;;;;;20.60;13.52;;;4.60;99.90;;;;;;5057377;28;20044;-70
2022/11/26 04:27:42;;;;;;;20.30;13.18;;;4.50;99.90;;;;;;5057907;28;20059;-70
2022/11/26 04:30:08;;;;;;;21.45;13.00;;;4.50;99.90;;;;;;5058027;28;20036;-70
2022/11/26 04:32:33;;;;;;;18.92;12.68;;;4.60;99.90;;;;;;5050188;28;20045;-70
2022/11/26 04:34:59;;;;;;;19.17;13.02;;;4.50;99.90;;;;;;5051657;28;20159;-70
2022/11/26 04:37:25;;;;;;;22.75;12.45;;;4.60;99.90;;;;;;5054111;28;20106;-70
2022/11/26 04:39:50;;;;;;;20.02;13.07;;;4.50;99.90;;;;;;5056903;28;20036;-70
2022/11/26 04:42:16;;;;;;;20.20;12.75;;;4.60;99.90;;;;;;5055193;28;20496;-70
2022/11/26 04:44:42;;;;;;;20.67;13.07;;;4.50;99.90;;;;;;5042858;28;20527;-70
2022/11/26 04:47:08;;;;;;;19.85;12.90;;;4.50;99.90;;;;;;5049359;28;20025;-70
2022/11/26 04:49:33;;;;;;;24.63;13.70;;;4.50;99.90;;;;;;5055503;28;20021;-70
2022/11/26 04:51:59;;;;;;;18.80;13.13;;;4.50;99.90;;;;;;5052395;28;20074;-70
2022/11/26 04:54:25;;;;;;;19.88;13.68;;;4.50;99.90;;;;;;5045675;28;20036;-70
2022/11/26 04:56:50;;;;;;;21.88;13.50;;;4.50;99.90;;;;;;5051616;28;20019;-70
2022/11/26 04:59:16;;;;;;;19.63;12.57;;;4.50;99.90;;;;;;5056210;28;20049;-70
2022/11/26 05:01:42;;;;;;;22.50;13.43;;;4.50;99.90;;;;;;5053887;28;20442;-70
2022/11/26 05:04:07;;;;;;;21.63;13.68;;;4.50;99.90;;;;;;5046698;28;20039;-70
2022/11/26 05:06:33;;;;;;;22.63;13.95;;;4.50;99.90;;;;;;5055277;28;20074;-70
2022/11/26 05:08:59;;;;;;;21.17;13.63;;;4.60;99.90;;;;;;5051374;28;20025;-70
2022/11/26 05:11:24;;;;;;;25.73;14.10;;;4.60;99.90;;;;;;5035981;28;20036;-69
2022/11/26 05:13:50;;;;;;;21.77;13.30;;;4.60;99.90;;;;;;5049378;28;20033;-70
2022/11/26 05:16:16;;;;;;;17.70;12.07;;;4.50;99.90;;;;;;5050907;28;20047;-70
2022/11/26 05:18:42;;;;;;;32.05;12.55;;;4.50;99.90;;;;;;5053788;28;20039;-70
2022/11/26 05:21:07;;;;;;;17.38;12.20;;;4.40;99.90;;;;;;5051269;28;20087;-70
2022/11/26 05:23:33;;;;;;;13.35;10.60;;;4.40;99.90;;;;;;5054940;28;20525;-70
2022/11/26 05:25:58;;;;;;;11.85;10.05;;;4.20;99.90;;;;;;5055659;28;20037;-70
2022/11/26 05:28:24;;;;;;;12.82;10.55;;;4.10;99.90;;;;;;5057735;28;20016;-70
2022/11/26 05:30:57;;;;;;;12.63;10.02;;;4.10;99.90;;;;;;5060645;28;20115;-70
2022/11/26 05:33:23;;;;;;;11.68;9.25;;;4.00;99.90;;;;;;5057800;28;20044;-70
2022/11/26 05:35:48;;;;;;;10.77;9.38;;;4.00;99.90;;;;;;5051642;28;20388;-70
2022/11/26 05:38:14;;;;;;;11.65;8.93;;;;;;;;;;5053436;28;20116;-70
2022/11/26 05:40:40;;;;;;;11.82;8.93;;;;;;;;;;5054127;28;20095;-70
2022/11/26 05:43:06;;;;;;;10.90;9.05;;;;;;;;;;5057922;28;20248;-70
2022/11/26 05:45:32;;;;;;;13.52;9.15;;;;;;;;;;5048161;28;20033;-69
2022/11/26 05:47:58;;;;;;;9.35;8.15;;;;;;;;;;5050256;28;20047;-70
2022/11/26 05:50:24;;;;;;;9.23;7.93;;;;;;;;;;5049782;28;20056;-70
2022/11/26 05:52:50;;;;;;;9.75;7.57;;;;;;;;;;5045783;28;20063;-69
2022/11/26 05:55:17;;;;;;;10.88;9.07;;;;;;;;;;5055900;28;20476;-70
2022/11/26 05:57:43;;;;;;;9.75;8.10;;;;;;;;;;5051666;28;20047;-70
2022/11/26 06:00:09;;;;;;;10.77;8.82;;;;;;;;;;5052201;28;20033;-69
2022/11/26 06:02:36;;;;;;;9.63;8.38;;;;;;;;;;5064992;28;20025;-70
2022/11/26 06:05:03;;;;;;;13.60;9.00;;;;;;;;;;5060794;28;20044;-70
2022/11/26 06:07:29;;;;;;;13.43;10.43;;;;;;;;;;5052963;28;20055;-69
2022/11/26 06:09:55;;;;;;;11.60;9.48;;;;;;;;;;5060370;28;20013;-69
2022/11/26 06:12:21;;;;;;;25.75;10.57;;;;;;;;;;5061019;28;20040;-70
2022/11/26 06:14:47;;;;;;;16.80;11.40;;;;;;;;;;5052902;28;20393;-70
2022/11/26 06:17:13;;;;;;;26.40;11.20;;;;;;;;;;5057509;28;20032;-70
2022/11/26 06:19:39;;;;;;;16.55;12.20;;;;;;;;;;5060496;28;20538;-70
2022/11/26 06:22:05;;;;;;;26.02;12.70;;;;;;;;;;5055341;28;20036;-70
2022/11/26 06:24:31;;;;;;;29.05;15.40;;;;;;;;;;5056461;28;20025;-70
2022/11/26 06:26:57;;;;;;;25.10;16.77;;;;;;;;;;5054783;28;20060;-70
2022/11/26 06:29:22;;;;;;;20.48;14.35;;;3.90;99.90;;;;;;5041549;28;20174;-70
2022/11/26 06:31:48;;;;;;;38.28;13.30;;;3.90;99.90;;;;;;5042223;28;20197;-70
2022/11/26 06:34:15;;;;;;;21.42;12.35;;;3.90;99.90;;;;;;5049098;28;20628;-70
2022/11/26 06:36:41;;;;;;;24.20;12.32;;;3.80;99.90;;;;;;5051158;28;20037;-70
2022/11/26 06:39:08;;;;;;;15.93;11.50;;;3.80;99.90;;;;;;5052768;28;20591;-70
2022/11/26 06:41:34;;;;;;;32.03;12.20;;;3.70;99.90;;;;;;5066221;28;20173;-70
2022/11/26 06:44:00;;;;;;;19.50;13.13;;;3.70;99.90;;;;;;5056532;28;20107;-70
2022/11/26 06:46:26;;;;;;;17.45;11.82;;;3.70;99.90;;;;;;5058689;28;20338;-71
2022/11/26 06:48:52;;;;;;;19.25;12.30;;;3.70;99.90;;;;;;5059203;28;20031;-69
2022/11/26 06:51:20;;;;;;;18.92;12.38;;;3.80;99.90;;;;;;5055311;28;20021;-70
2022/11/26 06:53:47;;;;;;;25.70;12.68;;;3.80;99.90;;;;;;5039514;28;20089;-71
2022/11/26 06:56:15;;;;;;;40.95;15.48;;;3.80;99.90;;;;;;5049314;28;20678;-71
2022/11/26 06:58:41;;;;;;;29.55;13.13;;;3.80;99.90;;;;;;5053679;28;20046;-71
2022/11/26 07:01:13;;;;;;;27.73;12.00;;;3.80;99.90;;;;;;5049564;28;20691;-71
2022/11/26 07:03:39;;;;;;;18.70;12.00;;;3.80;99.90;;;;;;5050309;28;20483;-71
2022/11/26 07:06:13;;;;;;;25.73;16.50;;;3.80;99.90;;;;;;5058346;28;20036;-71
2022/11/26 07:08:39;;;;;;;19.48;13.85;;;3.80;99.90;;;;;;5055675;28;20090;-70
2022/11/26 07:11:05;;;;;;;31.70;12.55;;;3.80;99.90;;;;;;5052808;28;20029;-71
2022/11/26 07:13:31;;;;;;;16.10;11.05;;;3.80;99.90;;;;;;5045712;28;20033;-70
2022/11/26 07:16:01;;;;;;;18.88;10.15;;;3.80;99.90;;;;;;5051810;28;20055;-71
2022/11/26 07:18:27;;;;;;;18.05;8.60;;;3.90;99.90;;;;;;5057224;28;20415;-70
2022/11/26 07:20:53;;;;;;;12.93;10.60;;;3.90;99.90;;;;;;5057601;28;20040;-70
2022/11/26 07:23:18;;;;;;;17.70;12.68;;;3.90;99.90;;;;;;5049102;28;20028;-70
2022/11/26 07:25:44;;;;;;;14.43;11.30;;;3.90;99.90;;;;;;5063347;28;20028;-70
2022/11/26 07:28:09;;;;;;;12.60;9.15;;;3.90;99.90;;;;;;5056226;28;20020;-70
2022/11/26 07:30:35;;;;;;;16.90;10.73;;;3.80;99.90;;;;;;5063738;28;20017;-70
2022/11/26 07:33:01;;;;;;;17.88;11.30;;;3.80;99.90;;;;;;5053544;28;20025;-70
2022/11/26 07:35:26;;;;;;;16.65;11.68;;;3.80;99.90;;;;;;5057310;28;20024;-70
2022/11/26 07:37:52;;;;;;;15.35;10.80;;;3.80;99.90;;;;;;5049512;28;20052;-71
2022/11/26 07:40:18;;;;;;;15.63;11.45;;;3.90;99.90;;;;;;5045085;28;20088;-70
2022/11/26 07:42:44;;;;;;;18.88;10.63;;;3.90;99.90;;;;;;5040175;28;20032;-70
2022/11/26 07:45:10;;;;;;;15.23;10.68;;;3.90;99.90;;;;;;5048287;28;20033;-70
2022/11/26 07:47:36;;;;;;;27.27;10.88;;;3.90;99.90;;;;;;5048000;28;20025;-71
2022/11/26 07:50:02;;;;;;;20.67;11.60;;;3.90;99.90;;;;;;5057795;28;20031;-71
2022/11/26 07:52:28;;;;;;;25.05;12.70;;;4.00;99.90;;;;;;5050353;28;20241;-70
2022/11/26 07:54:53;;;;;;;112.10;16.15;;;3.90;99.90;;;;;;5050029;28;20679;-70
2022/11/26 07:57:21;;;;;;;27.00;13.75;;;3.90;99.90;;;;;;5055748;28;20063;-71
2022/11/26 07:59:47;;;;;;;41.67;13.60;;;3.80;99.90;;;;;;5055011;28;20102;-71
2022/11/26 08:02:16;;;;;;;33.75;13.10;;;3.80;99.90;;;;;;5059189;28;20036;-71
2022/11/26 08:04:42;;;;;;;34.90;14.00;;;3.70;99.90;;;;;;5051930;28;20037;-70
2022/11/26 08:07:07;;;;;;;52.85;19.13;;;3.80;99.90;;;;;;5050470;28;20501;-71
2022/11/26 08:09:34;;;;;;;57.78;18.85;;;3.80;99.90;;;;;;5047005;28;20021;-70
2022/11/26 08:11:59;;;;;;;73.95;16.73;;;3.80;99.90;;;;;;5057484;28;20027;-71
2022/11/26 08:14:25;;;;;;;79.20;21.02;;;3.70;99.90;;;;;;5055637;28;20032;-71
2022/11/26 08:16:51;;;;;;;38.05;17.77;;;3.70;99.90;;;;;;5050034;28;20039;-70
2022/11/26 08:19:16;;;;;;;66.00;20.85;;;3.70;99.90;;;;;;5050515;28;20031;-70
2022/11/26 08:21:42;;;;;;;129.15;21.65;;;3.80;99.90;;;;;;5053216;28;20086;-70
2022/11/26 08:24:13;;;;;;;51.75;25.77;;;3.80;99.90;;;;;;5055943;28;20036;-70
2022/11/26 08:26:38;;;;;;;40.45;22.50;;;3.80;99.90;;;;;;5056152;28;20523;-71
2022/11/26 08:29:04;;;;;;;39.78;16.70;;;3.80;99.90;;;;;;5050950;28;20221;-70
2022/11/26 08:31:30;;;;;;;61.15;16.55;;;3.90;99.90;;;;;;5050485;28;20045;-70
2022/11/26 08:33:56;;;;;;;30.17;17.50;;;3.90;99.90;;;;;;5047236;28;20108;-70
2022/11/26 08:36:22;;;;;;;59.90;17.17;;;3.90;99.90;;;;;;5051946;28;20017;-70
2022/11/26 08:38:48;;;;;;;56.72;16.55;;;4.00;99.90;;;;;;5051511;28;20033;-70
2022/11/26 08:41:14;;;;;;;26.77;16.30;;;4.00;99.90;;;;;;5056724;28;20644;-70
2022/11/26 08:43:40;;;;;;;41.60;16.25;;;4.00;99.90;;;;;;5055724;28;20035;-70
2022/11/26 08:46:06;;;;;;;32.55;18.85;;;;;;;;;;5053893;28;20218;-70
2022/11/26 08:48:32;;;;;;;29.25;15.85;;;4.20;99.90;;;;;;5053086;28;20460;-70
2022/11/26 08:50:58;;;;;;;19.92;13.60;;;4.10;99.90;;;;;;5058362;28;20036;-70
2022/11/26 08:53:24;;;;;;;35.45;15.23;;;4.10;99.90;;;;;;5048388;28;20048;-70
2022/11/26 08:55:49;;;;;;;35.80;15.52;;;4.20;99.90;;;;;;5052553;28;20028;-70
2022/11/26 08:58:15;;;;;;;34.08;17.10;;;4.20;99.90;;;;;;5055991;28;20035;-70
2022/11/26 09:00:41;;;;;;;19.73;13.95;;;4.30;99.90;;;;;;5046817;28;20622;-70
2022/11/26 09:03:07;;;;;;;26.13;13.73;;;4.30;99.90;;;;;;5048517;28;20241;-70
2022/11/26 09:05:33;;;;;;;30.02;15.85;;;;;;;;;;5048802;28;20115;-72
2022/11/26 09:07:59;;;;;;;109.53;41.50;;;;;;;;;;5046695;28;20499;-72
2022/11/26 09:10:25;;;;;;;96.18;50.65;;;;;;;;;;5048413;28;20017;-72
2022/11/26 09:12:51;;;;;;;84.68;46.60;;;;;;;;;;5037650;28;20081;-72
2022/11/26 09:15:17;;;;;;;77.28;39.33;;;;;;;;;;5053939;28;20024;-72
2022/11/26 09:17:44;;;;;;;53.40;28.50;;;;;;;;;;5050604;28;20036;-72
2022/11/26 09:20:11;;;;;;;39.80;21.75;;;;;;;;;;5049718;28;20020;-72
2022/11/26 09:22:37;;;;;;;76.22;23.05;;;;;;;;;;5047161;28;20052;-71
2022/11/26 09:25:03;;;;;;;89.97;19.20;;;;;;;;;;5047671;28;20567;-72
2022/11/26 09:27:29;;;;;;;40.30;17.75;;;;;;;;;;5043971;28;20025;-72
2022/11/26 09:29:55;;;;;;;29.42;17.38;;;;;;;;;;5046415;28;20241;-72
2022/11/26 09:32:21;;;;;;;40.92;19.80;;;;;;;;;;5045695;28;20033;-72
2022/11/26 09:34:47;;;;;;;35.35;20.90;;;;;;;;;;5042280;28;20590;-71
2022/11/26 09:37:13;;;;;;;29.13;18.58;;;;;;;;;;5042918;28;20027;-71
2022/11/26 09:39:39;;;;;;;39.28;21.27;;;;;;;;;;5048325;28;20055;-72
2022/11/26 09:42:07;;;;;;;32.28;18.50;;;;;;;;;;5046342;28;20431;-72
2022/11/26 09:44:43;;;;;;;27.52;18.00;;;;;;;;;;5049178;28;20119;-72
2022/11/26 09:47:15;;;;;;;31.08;19.17;;;;;;;;;;5042992;28;20037;-72
2022/11/26 09:49:47;;;;;;;42.78;19.70;;;;;;;;;;5058534;28;20102;-72
2022/11/26 09:52:15;;;;;;;40.17;24.65;;;;;;;;;;5051515;28;20035;-72
2022/11/26 09:54:42;;;;;;;70.30;31.70;;;5.60;99.90;;;;;;5043996;28;20032;-72
2022/11/26 09:57:27;;;;;;;38.83;21.80;;;5.50;99.90;;;;;;5048183;28;20033;-72
2022/11/26 09:59:54;;;;;;;51.13;19.08;;;5.50;99.90;;;;;;5055336;28;20292;-72
2022/11/26 10:02:21;;;;;;;29.35;18.25;;;5.50;99.90;;;;;;5051107;28;20025;-72
2022/11/26 10:04:47;;;;;;;45.80;17.60;;;5.50;99.90;;;;;;5048054;28;20104;-72
2022/11/26 10:07:24;;;;;;;28.88;17.25;;;5.50;99.90;;;;;;5056611;28;20461;-72
2022/11/26 10:10:19;;;;;;;57.60;15.80;;;5.50;99.90;;;;;;5050975;28;21257;-72
2022/11/26 10:13:13;;;;;;;27.45;14.73;;;5.50;99.90;;;;;;5045910;28;20052;-72
2022/11/26 10:16:07;;;;;;;62.33;14.85;;;5.50;99.90;;;;;;5043893;28;20053;-72
2022/11/26 10:18:37;;;;;;;35.28;14.43;;;;;;;;;;5045820;28;20429;-71
2022/11/26 10:21:15;;;;;;;25.98;14.30;;;;;;;;;;5047906;28;20818;-73
2022/11/26 10:23:50;;;;;;;121.35;16.42;;;;;;;;;;5048748;28;20036;-72
2022/11/26 10:26:19;;;;;;;101.97;15.43;;;;;;;;;;5046066;28;20132;-73
2022/11/26 10:28:47;;;;;;;27.10;14.98;;;;;;;;;;5045349;28;20028;-73
2022/11/26 10:31:24;;;;;;;34.17;16.55;;;;;;;;;;5054489;28;20174;-73
2022/11/26 10:33:56;;;;;;;67.55;18.95;;;;;;;;;;5047852;28;20024;-72
2022/11/26 10:36:26;;;;;;;43.55;19.27;;;;;;;;;;5049691;28;20037;-72
2022/11/26 10:38:55;;;;;;;34.22;20.70;;;;;;;;;;5051535;28;20055;-72
2022/11/26 10:41:22;;;;;;;47.00;22.52;;;;;;;;;;5045160;28;20021;-73
2022/11/26 10:43:48;;;;;;;37.95;22.52;;;;;;;;;;5049546;28;20024;-72
2022/11/26 10:46:29;;;;;;;41.85;19.92;;;;;;;;;;5047177;28;20043;-72
2022/11/26 10:49:14;;;;;;;36.53;20.95;;;;;;;;;;5062866;28;20041;-72
2022/11/26 10:51:40;;;;;;;40.00;19.23;;;;;;;;;;5054880;28;20373;-72
2022/11/26 10:54:06;;;;;;;32.25;18.85;;;;;;;;;;5056920;28;20043;-72
2022/11/26 10:56:38;;;;;;;36.47;20.92;;;;;;;;;;5050906;28;20083;-73
2022/11/26 10:59:07;;;;;;;51.78;21.30;;;;;;;;;;5054277;28;20032;-72
2022/11/26 11:01:36;;;;;;;46.30;23.48;;;;;;;;;;5060859;28;20040;-72
2022/11/26 11:04:23;;;;;;;41.50;20.58;;;;;;;;;;5060205;28;20024;-72
2022/11/26 11:06:49;;;;;;;37.30;19.95;;;;;;;;;;5048626;28;20123;-72
2022/11/26 11:09:35;;;;;;;45.13;20.50;;;;;;;;;;5059483;28;20079;-72
2022/11/26 11:12:07;;;;;;;41.78;21.13;;;;;;;;;;5052201;28;20017;-72
2022/11/26 11:14:33;;;;;;;42.55;20.33;;;;;;;;;;5058864;28;20028;-72
2022/11/26 11:16:59;;;;;;;37.75;20.25;;;;;;;;;;5061378;28;20215;-72
2022/11/26 11:19:26;;;;;;;41.72;20.63;;;;;;;;;;5058361;28;20044;-72
2022/11/26 11:21:51;;;;;;;40.92;21.88;;;6.40;99.90;;;;;;5056102;28;20037;-72
2022/11/26 11:24:21;;;;;;;79.45;40.75;;;6.30;99.90;;;;;;5057747;28;20115;-72
2022/11/26 11:26:52;;;;;;;57.28;35.78;;;6.40;99.90;;;;;;5060607;28;20074;-72
2022/11/26 11:29:35;;;;;;;56.63;29.98;;;6.40;99.90;;;;;;5058259;28;20033;-73
2022/11/26 11:32:03;;;;;;;;;;;6.40;99.90;;;;;;5057686;28;20981;-72
2022/11/26 11:34:43;;;;;;;46.50;24.60;;;6.50;99.90;;;;;;5057558;28;20402;-72
2022/11/26 11:37:16;;;;;;;50.92;26.90;;;6.50;99.90;;;;;;5047403;28;20021;-73
2022/11/26 11:39:42;;;;;;;63.08;30.77;;;;;;;;;;5047405;28;20018;-72
2022/11/26 11:42:31;;;;;;;59.08;32.20;;;6.80;99.90;;;;;;5047318;28;20055;-72
2022/11/26 11:44:58;;;;;;;61.78;33.67;;;6.80;99.90;;;;;;5053638;28;20164;-72
2022/11/26 11:47:37;;;;;;;53.72;29.50;;;;;;;;;;5054820;28;20051;-72
2022/11/26 11:50:15;;;;;;;50.53;26.95;;;;;;;;;;5053351;28;20058;-72
2022/11/26 11:53:00;;;;;;;46.95;23.08;;;;;;;;;;5052444;28;20028;-72
2022/11/26 11:55:31;;;;;;;43.45;20.67;;;7.00;99.90;;;;;;5052102;28;20171;-73
2022/11/26 11:58:08;;;;;;;33.03;18.80;;;;;;;;;;5049189;28;20035;-72
2022/11/26 12:00:48;;;;;;;39.42;20.50;;;7.10;99.90;;;;;;5055122;28;20508;-72
2022/11/26 12:03:38;;;;;;;36.80;19.08;;;7.10;99.90;;;;;;5046781;28;20037;-72
2022/11/26 12:06:26;;;;;;;35.38;18.38;;;7.10;99.90;;;;;;5047752;28;20752;-72
2022/11/26 12:09:24;;;;;;;33.50;17.35;;;7.20;99.90;;;;;;5046231;28;20041;-72
2022/11/26 12:11:58;;;;;;;37.05;18.67;;;7.20;99.90;;;;;;5039695;28;20029;-72
2022/11/26 12:14:24;;;;;;;34.20;19.15;;;7.10;99.90;;;;;;5049433;28;20705;-72
2022/11/26 12:16:55;;;;;;;31.88;17.30;;;7.20;99.90;;;;;;5051465;28;20032;-72
2022/11/26 12:19:37;;;;;;;44.38;18.38;;;7.20;99.90;;;;;;5049187;28;20060;-72
2022/11/26 12:22:20;;;;;;;30.88;17.95;;;;;;;;;;5058519;28;20033;-72
2022/11/26 12:24:54;;;;;;;32.42;19.90;;;7.10;99.90;;;;;;5051163;28;20040;-73
2022/11/26 12:27:22;;;;;;;42.55;26.05;;;7.10;99.90;;;;;;5046656;28;20048;-73
2022/11/26 12:30:05;;;;;;;40.78;22.58;;;7.20;99.90;;;;;;5057343;28;20063;-72
2022/11/26 12:33:03;;;;;;;31.98;18.48;;;7.20;99.90;;;;;;5049295;28;20072;-73
2022/11/26 12:35:34;;;;;;;35.80;19.15;;;7.30;99.90;;;;;;5044911;28;20091;-73
2022/11/26 12:38:18;;;;;;;33.95;18.30;;;7.40;99.90;;;;;;5052202;28;20509;-72
2022/11/26 12:40:49;;;;;;;33.78;20.50;;;7.40;99.90;;;;;;5044862;28;20163;-73
2022/11/26 12:43:18;;;;;;;39.63;24.23;;;7.50;99.90;;;;;;5043954;28;20031;-72
2022/11/26 12:46:04;;;;;;;34.28;20.58;;;7.50;99.90;;;;;;5054624;28;20024;-73
2022/11/26 12:48:53;;;;;;;24.85;15.55;;;7.60;99.90;;;;;;5058547;28;20028;-73
2022/11/26 12:51:48;;;;;;;26.63;15.07;;;7.50;99.90;;;;;;5056205;28;20032;-73
2022/11/26 12:54:38;;;;;;;30.05;14.77;;;7.50;99.90;;;;;;5049682;28;20412;-72
2022/11/26 12:57:25;;;;;;;27.70;15.80;;;7.50;99.90;;;;;;5058093;28;20055;-73
2022/11/26 12:59:57;;;;;;;28.45;14.77;;;7.50;99.90;;;;;;5054136;28;20036;-73
2022/11/26 13:02:28;;;;;;;35.22;17.85;;;7.70;99.90;;;;;;5048996;28;20066;-73
2022/11/26 13:04:55;;;;;;;35.85;19.98;;;7.70;99.90;;;;;;5047108;28;20062;-73
2022/11/26 13:07:24;;;;;;;31.65;17.20;;;7.60;99.90;;;;;;5056178;28;20448;-72
2022/11/26 13:09:56;;;;;;;27.92;15.63;;;7.60;99.90;;;;;;5058994;28;20103;-74
2022/11/26 13:13:13;;;;;;;28.88;14.82;;;7.60;99.90;;;;;;5052038;28;20029;-74